createdAt,value
2022-11-04T00:03:58.204Z,4.57
2022-11-04T00:09:01.282Z,5.03
2022-11-04T00:14:06.019Z,4.38
2022-11-04T00:19:08.596Z,4.80
2022-11-04T00:24:44.689Z,4.75
2022-11-04T00:29:49.071Z,5.05
2022-11-04T00:34:51.657Z,4.05
2022-11-04T00:39:54.253Z,5.45
2022-11-04T00:44:58.243Z,6.32
2022-11-04T00:50:00.843Z,5.10
2022-11-04T00:55:03.625Z,5.45
2022-11-04T01:00:09.189Z,4.93
2022-11-04T01:05:11.777Z,4.45
2022-11-04T01:10:14.416Z,6.18
2022-11-04T01:15:18.699Z,5.15
2022-11-04T01:20:21.402Z,3.30
2022-11-04T01:25:24.208Z,5.45
2022-11-04T01:30:28.119Z,5.05
2022-11-04T01:35:30.763Z,4.82
2022-11-04T01:40:37.498Z,4.82
2022-11-04T01:45:42.935Z,4.85
2022-11-04T01:50:45.787Z,5.03
2022-11-04T01:55:52.526Z,4.10
2022-11-04T02:00:56.548Z,4.35
2022-11-04T02:06:00.677Z,4.53
2022-11-04T02:11:05.063Z,4.70
2022-11-04T02:16:17.790Z,4.32
2022-11-04T02:22:01.996Z,4.88
2022-11-04T02:27:37.350Z,4.07
2022-11-04T02:33:06.738Z,5.07
2022-11-04T02:38:18.332Z,4.82
2022-11-04T02:43:26.542Z,4.43
2022-11-04T02:48:38.877Z,5.15
2022-11-04T02:53:46.604Z,5.03
2022-11-04T02:58:55.778Z,4.93
2022-11-04T03:04:05.285Z,5.43
2022-11-04T03:09:11.676Z,5.53
2022-11-04T03:14:16.657Z,6.07
2022-11-04T03:19:27.919Z,6.50
2022-11-04T03:24:32.398Z,5.32
2022-11-04T03:39:43.835Z,6.00
2022-11-04T03:44:47.952Z,6.13
2022-11-04T03:49:55.709Z,5.68
2022-11-04T03:54:58.536Z,5.47
2022-11-04T04:00:10.351Z,5.82
2022-11-04T04:05:21.265Z,6.10
2022-11-04T04:10:41.874Z,6.60
2022-11-04T04:15:50.663Z,6.60
2022-11-04T04:20:57.533Z,6.55
2022-11-04T04:26:23.587Z,6.97
2022-11-04T04:31:45.548Z,6.80
2022-11-04T04:36:54.302Z,7.80
2022-11-04T04:42:14.961Z,8.18
2022-11-04T04:47:21.887Z,6.28
2022-11-04T04:52:28.703Z,6.72
2022-11-04T04:57:31.493Z,5.95
2022-11-04T05:02:34.229Z,6.60
2022-11-04T05:07:38.376Z,6.68
2022-11-04T05:12:59.181Z,7.25
2022-11-04T05:18:03.261Z,4.50
2022-11-04T05:23:07.775Z,4.50
2022-11-04T05:33:13.676Z,4.15
2022-11-04T05:38:17.646Z,3.92
2022-11-04T05:43:20.510Z,2.22
2022-11-04T05:48:24.188Z,3.30
2022-11-04T05:58:35.994Z,3.30
2022-11-04T06:03:38.691Z,3.00
2022-11-04T06:08:45.283Z,2.88
2022-11-04T06:13:48.161Z,2.63
2022-11-04T06:18:50.807Z,3.53
2022-11-04T06:23:56.836Z,3.60
2022-11-04T06:28:59.488Z,3.30
2022-11-04T06:34:02.156Z,3.55
2022-11-04T06:39:06.546Z,2.65
2022-11-04T06:44:09.245Z,2.88
2022-11-04T06:49:14.576Z,2.72
2022-11-04T06:54:19.396Z,2.40
2022-11-04T06:59:22.062Z,2.47
2022-11-04T07:04:24.743Z,2.42
2022-11-04T07:09:28.670Z,2.60
2022-11-04T07:14:31.437Z,2.03
2022-11-04T07:19:34.123Z,2.10
2022-11-04T07:24:40.663Z,1.75
2022-11-04T07:29:43.284Z,1.98
2022-11-04T07:34:45.848Z,2.10
2022-11-04T07:39:49.735Z,2.08
2022-11-04T07:44:52.311Z,1.70
2022-11-04T07:50:11.324Z,1.95
2022-11-04T07:55:25.014Z,2.22
2022-11-04T08:00:29.627Z,2.80
2022-11-04T08:05:32.253Z,2.30
2022-11-04T08:10:39.532Z,2.47
2022-11-04T08:15:44.287Z,1.70
2022-11-04T08:20:50.024Z,1.80
2022-11-04T08:25:54.136Z,2.03
2022-11-04T08:31:01.248Z,1.80
2022-11-04T08:36:09.524Z,1.42
2022-11-04T08:41:15.549Z,1.63
2022-11-04T08:46:18.542Z,1.30
2022-11-04T08:51:23.822Z,1.02
2022-11-04T08:56:30.376Z,0.85
2022-11-04T09:01:36.807Z,0.98
2022-11-04T09:06:41.876Z,0.73
2022-11-04T09:12:06.296Z,0.93
2022-11-04T09:17:19.574Z,0.63
2022-11-04T09:22:22.338Z,0.90
2022-11-04T09:27:28.391Z,0.85
2022-11-04T09:32:33.280Z,0.70
2022-11-04T09:37:40.700Z,0.70
2022-11-04T09:43:55.420Z,0.60
2022-11-04T09:49:03.622Z,0.50
2022-11-04T09:54:29.536Z,0.50
2022-11-04T10:05:37.919Z,0.65
2022-11-04T10:11:03.680Z,1.05
2022-11-04T10:16:38.793Z,0.40
2022-11-04T10:22:01.618Z,0.60
2022-11-04T10:27:14.174Z,0.60
2022-11-04T10:37:56.124Z,0.63
2022-11-04T10:43:00.589Z,0.65
2022-11-04T10:53:48.767Z,0.70
2022-11-04T10:58:58.621Z,0.55
2022-11-04T11:04:29.446Z,0.60
2022-11-04T11:09:35.019Z,0.65
2022-11-04T11:14:40.063Z,0.60
2022-11-04T11:19:51.678Z,0.90
2022-11-04T11:24:54.395Z,0.98
2022-11-04T11:29:57.247Z,1.17
2022-11-04T11:35:04.316Z,0.68
2022-11-04T11:40:25.834Z,0.82
2022-11-04T11:45:29.157Z,0.77
2022-11-04T11:50:35.008Z,1.02
2022-11-04T11:55:39.205Z,0.90
2022-11-04T12:00:51.970Z,0.95
2022-11-04T12:11:29.277Z,0.57
2022-11-04T12:16:39.174Z,1.00
2022-11-04T12:21:48.169Z,1.13
2022-11-04T12:26:59.940Z,1.52
2022-11-04T12:32:10.289Z,1.10
2022-11-04T12:37:26.727Z,0.90
2022-11-04T12:42:44.807Z,0.80
2022-11-04T12:47:48.620Z,0.85
2022-11-04T12:53:14.312Z,0.80
2022-11-04T12:58:29.823Z,0.90
2022-11-04T13:03:37.543Z,0.68
2022-11-04T13:08:47.756Z,0.80
2022-11-04T13:14:02.200Z,0.52
2022-11-04T13:19:07.162Z,0.70
2022-11-04T13:24:22.199Z,0.70
2022-11-04T13:29:26.560Z,0.90
2022-11-04T13:34:49.403Z,0.80
2022-11-04T13:39:58.815Z,0.90
2022-11-04T13:45:12.128Z,0.90
2022-11-04T13:50:29.763Z,1.10
2022-11-04T13:55:35.529Z,0.98
2022-11-04T14:00:39.860Z,1.20
2022-11-04T14:06:12.557Z,1.10
2022-11-04T14:11:16.513Z,1.60
2022-11-04T14:16:40.150Z,0.80
2022-11-04T14:22:07.738Z,1.42
2022-11-04T14:27:25.587Z,1.23
2022-11-04T14:32:32.903Z,1.15
2022-11-04T14:37:37.666Z,1.10
2022-11-04T14:42:49.935Z,1.30
2022-11-04T14:48:15.551Z,1.00
2022-11-04T14:53:24.635Z,1.30
2022-11-04T14:58:33.875Z,1.20
2022-11-04T15:04:10.966Z,1.08
2022-11-04T15:09:01.663Z,1.35
2022-11-04T15:14:15.773Z,1.35
2022-11-04T15:19:28.214Z,1.50
2022-11-04T15:24:39.046Z,2.08
2022-11-04T15:30:24.720Z,1.77
2022-11-04T15:35:31.713Z,1.23
2022-11-04T15:41:00.592Z,1.65
2022-11-04T15:46:10.266Z,1.52
2022-11-04T15:51:17.220Z,1.67
2022-11-04T15:56:26.026Z,2.15
2022-11-04T16:01:32.804Z,1.63
2022-11-04T16:06:38.279Z,2.28
2022-11-04T16:11:41.336Z,1.95
2022-11-04T16:16:50.755Z,3.60
2022-11-04T16:22:01.909Z,4.82
2022-11-04T16:27:09.124Z,2.60
2022-11-04T16:32:19.727Z,1.60
2022-11-04T16:37:22.431Z,2.22
2022-11-04T16:42:25.316Z,5.00
2022-11-04T16:47:30.790Z,6.88
2022-11-04T16:52:33.462Z,6.03
2022-11-04T16:57:36.379Z,5.40
2022-11-04T17:02:41.640Z,5.45
2022-11-04T17:07:53.647Z,8.02
2022-11-04T17:12:58.157Z,12.05
2022-11-04T17:18:02.319Z,10.02
2022-11-04T17:23:05.074Z,8.07
2022-11-04T17:28:07.811Z,9.70
2022-11-04T17:33:14.650Z,9.80
2022-11-04T17:38:18.719Z,7.13
2022-11-04T17:43:38.881Z,5.15
2022-11-04T17:48:45.425Z,7.50
2022-11-04T17:53:49.400Z,8.25
2022-11-04T17:58:53.320Z,6.45
2022-11-04T18:03:58.074Z,8.68
2022-11-04T18:09:00.918Z,8.27
2022-11-04T18:14:03.625Z,6.50
2022-11-04T18:19:07.744Z,5.65
2022-11-04T18:24:10.753Z,4.53
2022-11-04T18:29:13.698Z,3.85
2022-11-04T18:34:19.930Z,3.80
2022-11-04T18:39:22.899Z,5.13
2022-11-04T18:44:25.496Z,5.95
2022-11-04T18:49:29.932Z,8.02
2022-11-04T18:54:32.771Z,9.48
2022-11-04T18:59:35.438Z,8.82
2022-11-04T19:04:39.474Z,10.15
2022-11-04T19:09:47.185Z,9.32
2022-11-04T19:14:50.702Z,7.88
2022-11-04T19:19:54.869Z,6.97
2022-11-04T19:24:57.523Z,4.93
2022-11-04T19:30:00.175Z,5.43
2022-11-04T19:35:04.299Z,5.20
2022-11-04T19:40:08.099Z,6.00
2022-11-04T19:45:10.861Z,4.63
2022-11-04T19:50:15.053Z,5.03
2022-11-04T19:55:17.801Z,4.75
2022-11-04T20:00:20.872Z,6.18
2022-11-04T20:05:25.183Z,4.57
2022-11-04T20:10:27.958Z,3.55
2022-11-04T20:15:30.957Z,4.00
2022-11-04T20:20:35.195Z,4.45
2022-11-04T20:25:38.202Z,4.63
2022-11-04T20:30:44.010Z,4.32
2022-11-04T20:35:48.406Z,4.18
2022-11-04T20:40:51.267Z,4.07
2022-11-04T20:45:54.063Z,3.92
2022-11-04T20:50:58.189Z,4.32
2022-11-04T20:56:00.885Z,2.83
2022-11-04T21:01:05.434Z,3.58
2022-11-04T21:06:11.638Z,3.90
2022-11-04T21:11:31.746Z,3.55
2022-11-04T21:16:35.887Z,3.30
2022-11-04T21:21:41.907Z,3.17
2022-11-04T21:26:45.601Z,3.30
2022-11-04T21:31:49.732Z,2.80
2022-11-04T21:36:54.011Z,3.20
2022-11-04T21:42:02.431Z,2.67
2022-11-04T21:47:05.268Z,3.20
2022-11-04T21:52:13.663Z,3.03
2022-11-04T21:57:17.728Z,3.40
2022-11-04T22:02:20.664Z,2.45
2022-11-04T22:07:54.438Z,3.38
2022-11-04T22:12:57.440Z,3.47
2022-11-04T22:18:00.441Z,4.15
2022-11-04T22:23:05.093Z,3.88
2022-11-04T22:28:07.954Z,4.15
2022-11-04T22:33:11.014Z,3.80
2022-11-04T22:38:15.798Z,3.42
2022-11-04T22:43:18.586Z,3.47
2022-11-04T22:48:21.746Z,4.18
2022-11-04T22:53:26.243Z,4.07
2022-11-04T23:03:31.901Z,3.92
2022-11-04T23:08:37.472Z,3.88
2022-11-04T23:14:06.625Z,4.60
2022-11-04T23:19:09.309Z,4.50
2022-11-04T23:24:30.897Z,4.40
2022-11-04T23:29:51.151Z,4.57
2022-11-04T23:35:11.397Z,5.30
2022-11-04T23:40:15.462Z,4.95
2022-11-04T23:45:36.170Z,4.20
2022-11-04T23:50:56.215Z,4.57
2022-11-04T23:56:18.611Z,4.88
